aviador You're here:

YBRK Decoded Metar

ROCKHAMPTON in AUSTRALIA
Report Time2017-07-26 04:00:00
UTC Time2017-07-26 04:43:53
Flight Rules vfr VFR
Wind080° at 07 kt
W.Decomp.*RWY 04: 6.0 kt HW 3.6 kt RCW
RWY 15: 1.3 kt HW 6.9 kt LCW
W.Rank080° ranks 8
Current wind is above 080° avg. (6.9)
Visibility9999 m
Phenomena:N/A
Clouds:N/A
Expected CloudBase > 8,800 ft AGL from Temp-Dew spread
CeilingNone
Temp24°C (ISA +9)
Dew Point02°C (24% RH)
AAT19.8°C
QNH1020 hPa
Density Alt968 ft
Elevation46 ft
Report Wrong Elevation
Raw Report
METAR YBRK 260400Z 08007KT CAVOK 24/02 Q1020=

Extra information for YBRK:More info

Metar Taf Metar & Taf Last 4 Metars F.Rules Stats Wind Profile Meteogram Temp Stats Airport Information Weather charts Add Link Nearby VenuesMetar ALERT Operation Metar Decoded Social comments